Time;durP1;ratioP1;P1;durP2;ratioP2;P2;SDS_P1;SDS_P2;PMS_P1;PMS_P2;Temp;Humidity;BMP_temperature;BMP_pressure;BME280_temperature;BME280_humidity;BME280_pressure;Samples;Min_cycle;Max_cycle;Signal;HPM_P1;HPM_P2
2022/12/27 00:01:54;;;;;;;0.98;0.40;;;;;;;;;;5046608;28;20224;-67
2022/12/27 00:04:21;;;;;;;3.28;0.40;;;;;;;;;;5028182;28;20067;-69
2022/12/27 00:06:48;;;;;;;0.95;0.40;;;;;;;;;;5061768;28;20116;-69
2022/12/27 00:09:15;;;;;;;4.18;0.60;;;;;;;;;;5046194;28;20515;-70
2022/12/27 00:11:41;;;;;;;0.75;0.40;;;;;;;;;;5046222;28;20125;-68
2022/12/27 00:14:08;;;;;;;1.92;0.35;;;;;;;;;;5033994;28;20038;-67
2022/12/27 00:16:36;;;;;;;2.70;0.50;;;;;;;;;;5022836;28;20176;-68
2022/12/27 00:19:23;;;;;;;0.52;0.38;;;;;;;;;;5031860;28;20162;-68
2022/12/27 00:21:49;;;;;;;1.33;0.50;;;;;;;;;;5046065;28;20037;-73
2022/12/27 00:24:16;;;;;;;0.90;0.40;;;;;;;;;;5044703;28;20043;-67
2022/12/27 00:26:43;;;;;;;1.48;0.50;;;;;;;;;;5043110;28;20064;-68
2022/12/27 00:29:10;;;;;;;2.25;0.70;;;;;;;;;;5042295;28;20129;-69
2022/12/27 00:31:37;;;;;;;1.40;0.50;;;;;;;;;;5046401;28;20486;-69
2022/12/27 00:34:04;;;;;;;0.73;0.35;;;;;;;;;;5042570;28;20541;-70
2022/12/27 00:36:31;;;;;;;3.45;0.70;;;;;;;;;;5043026;28;20044;-71
2022/12/27 00:38:58;;;;;;;2.20;0.70;;;;;;;;;;5046372;28;20068;-70
2022/12/27 00:41:25;;;;;;;1.10;0.40;;;;;;;;;;5027491;28;20116;-69
2022/12/27 00:43:52;;;;;;;0.77;0.40;;;;;;;;;;5046805;28;20067;-71
2022/12/27 00:46:18;;;;;;;1.17;0.40;;;;;;;;;;5041872;28;21638;-69
2022/12/27 00:48:45;;;;;;;0.98;0.43;;;;;;;;;;5029555;28;20107;-69
2022/12/27 00:51:14;;;;;;;2.63;0.50;;;;;;;;;;5029868;28;20026;-71
2022/12/27 00:53:41;;;;;;;3.78;0.60;;;;;;;;;;5024439;28;20049;-69
2022/12/27 00:56:10;;;;;;;2.33;0.52;;;;;;;;;;5028017;28;20055;-72
2022/12/27 00:58:45;;;;;;;2.85;0.75;;;;;;;;;;5039732;28;20051;-70
2022/12/27 01:01:16;;;;;;;2.40;0.73;;;;;;;;;;5025143;28;20048;-65
2022/12/27 01:03:43;;;;;;;1.85;0.50;;;;;;;;;;5025674;28;20448;-68
2022/12/27 01:06:12;;;;;;;1.20;0.47;;;;;;;;;;5026104;28;20045;-67
2022/12/27 01:08:38;;;;;;;1.77;0.50;;;;;;;;;;5023597;28;20037;-69
2022/12/27 01:11:05;;;;;;;1.20;0.40;;;;;;;;;;5024164;28;20083;-67
2022/12/27 01:13:32;;;;;;;2.22;0.50;;;;;;;;;;5023235;28;20045;-68
2022/12/27 01:15:59;;;;;;;0.68;0.40;;;;;;;;;;5025322;28;20041;-70
2022/12/27 01:18:26;;;;;;;1.35;0.60;;;;;;;;;;5025723;28;20044;-70
2022/12/27 01:20:52;;;;;;;1.38;0.55;;;;;;;;;;5026728;28;20861;-69
2022/12/27 01:23:19;;;;;;;3.92;1.10;;;;;;;;;;5025322;28;20049;-73
2022/12/27 01:25:46;;;;;;;2.17;0.73;;;;;;;;;;5027050;28;20033;-69
2022/12/27 01:28:12;;;;;;;4.05;1.00;;;;;;;;;;5027946;28;20785;-68
2022/12/27 01:30:39;;;;;;;3.20;0.93;;;;;;;;;;5025119;28;20049;-68
2022/12/27 01:33:05;;;;;;;3.72;1.17;;;;;;;;;;5038048;28;20033;-70
2022/12/27 01:35:32;;;;;;;2.40;0.57;;;;;;;;;;5023270;28;20467;-68
2022/12/27 01:37:59;;;;;;;2.78;0.60;;;;;;;;;;5025171;28;20132;-68
2022/12/27 01:40:25;;;;;;;3.08;0.52;;;;;;;;;;5011743;28;20041;-69
2022/12/27 01:42:52;;;;;;;2.28;0.70;;;;;;;;;;5023034;28;20054;-69
2022/12/27 01:45:20;;;;;;;1.30;0.50;;;;;;;;;;5025107;28;20037;-68
2022/12/27 01:48:05;;;;;;;3.42;0.50;;;;;;;;;;5023230;28;20110;-69
2022/12/27 01:50:33;;;;;;;1.73;0.50;;;;;;;;;;5028513;28;20490;-67
2022/12/27 01:53:09;;;;;;;2.45;0.70;;;;;;;;;;5025032;28;20049;-68
2022/12/27 01:55:35;;;;;;;1.90;0.60;;;;;;;;;;5026808;28;20601;-67
2022/12/27 01:58:09;;;;;;;2.70;0.73;;;;;;;;;;5025443;28;20090;-68
2022/12/27 02:00:36;;;;;;;4.88;1.02;;;;;;;;;;5027069;28;20087;-70
2022/12/27 02:03:04;;;;;;;4.53;1.10;;;;;;;;;;5028671;28;20111;-68
2022/12/27 02:05:30;;;;;;;51.65;23.45;;;;;;;;;;5041671;28;20094;-67
2022/12/27 02:08:15;;;;;;;6.45;2.20;;;;;;;;;;5026099;28;20051;-69
2022/12/27 02:10:42;;;;;;;5.35;1.42;;;;;;;;;;5028068;28;20041;-69
2022/12/27 02:13:09;;;;;;;5.18;1.55;;;;;;;;;;5026306;28;20029;-70
2022/12/27 02:15:36;;;;;;;4.00;1.17;;;;;;;;;;5025044;28;20041;-69
2022/12/27 02:18:03;;;;;;;5.78;1.30;;;;;;;;;;5028540;28;20120;-68
2022/12/27 02:20:34;;;;;;;3.38;0.95;;;;;;;;;;5026395;28;20512;-69
2022/12/27 02:26:25;;;;;;;5.82;1.17;;;;;;;;;;5025546;28;20052;-69
2022/12/27 02:29:12;;;;;;;3.00;0.98;;;;;;;;;;5031929;28;20178;-71
2022/12/27 02:31:46;;;;;;;5.95;0.80;;;;;;;;;;5031875;28;20042;-70
2022/12/27 02:34:19;;;;;;;2.85;1.08;;;;;;;;;;5031665;28;20077;-70
2022/12/27 02:36:46;;;;;;;6.40;0.90;;;;;;;;;;5010916;28;20029;-69
2022/12/27 02:39:15;;;;;;;6.35;1.23;;;;;;;;;;5031653;28;20029;-71
2022/12/27 02:53:06;;;;;;;16.25;4.70;;;;;;;;;;5044018;28;20071;-68
2022/12/27 02:55:33;;;;;;;8.68;1.88;;;;;;;;;;5051966;28;20596;-69
2022/12/27 02:58:15;;;;;;;6.22;1.60;;;;;;;;;;5051634;28;20041;-69
2022/12/27 03:04:01;;;;;;;5.55;1.33;;;;;;;;;;5052079;28;20200;-70
2022/12/27 03:06:40;;;;;;;3.42;1.13;;;;;;;;;;5049463;28;20040;-69
2022/12/27 03:09:06;;;;;;;79.57;22.73;;;;;;;;;;5048061;28;20036;-69
2022/12/27 03:17:30;;;;;;;14.98;5.25;;;;;;;;;;5026079;28;20080;-68
2022/12/27 03:25:33;;;;;;;6.22;3.00;;;;;;;;;;5029015;28;20111;-70
2022/12/27 03:33:40;;;;;;;4.75;1.40;;;;;;;;;;5028881;28;20098;-69
2022/12/27 03:39:00;;;;;;;3.85;1.27;;;;;;;;;;5025756;28;20055;-69
2022/12/27 03:44:23;;;;;;;2.92;0.88;;;;;;;;;;5026785;28;20087;-68
2022/12/27 03:47:13;;;;;;;1.98;0.70;;;;;;;;;;5025534;28;20041;-67
2022/12/27 03:49:43;;;;;;;2.65;0.80;;;;;;;;;;5024832;28;20071;-68
2022/12/27 03:52:16;;;;;;;3.42;0.70;;;;;;;;;;5026658;28;20068;-68
2022/12/27 03:54:44;;;;;;;1.98;0.77;;;;;;;;;;5025203;28;20049;-69
2022/12/27 03:57:22;;;;;;;2.17;0.68;;;;;;;;;;5025028;28;20141;-67
2022/12/27 03:59:49;;;;;;;2.65;0.85;;;;;;;;;;5054636;28;20051;-67
2022/12/27 04:02:16;;;;;;;2.38;0.70;;;;;;;;;;5024224;28;20072;-68
2022/12/27 04:04:43;;;;;;;1.67;0.57;;;;;;;;;;5034922;28;20041;-69
2022/12/27 04:07:10;;;;;;;3.65;0.75;;;;;;;;;;5045709;28;20405;-68
2022/12/27 04:37:08;;;;;;;1.58;0.50;;;;;;;;;;5044661;28;20039;-68
2022/12/27 04:39:35;;;;;;;3.53;0.75;;;;;;;;;;5043491;28;20044;-69
2022/12/27 04:55:58;;;;;;;58.10;20.17;;;;;;;;;;5026268;28;20098;-68
2022/12/27 04:58:25;;;;;;;70.47;24.58;;;;;;;;;;5024474;28;20063;-67
2022/12/27 05:03:37;;;;;;;4.63;1.40;;;;;;;;;;5023904;28;20048;-67
2022/12/27 05:06:04;;;;;;;2.33;0.90;;;;;;;;;;5023839;28;20052;-67
2022/12/27 05:14:02;;;;;;;2.10;0.70;;;;;;;;;;5017448;28;20126;-67
2022/12/27 05:16:32;;;;;;;2.15;0.73;;;;;;;;;;5049240;28;20043;-68
2022/12/27 05:18:59;;;;;;;3.50;0.88;;;;;;;;;;5022281;28;20105;-68
2022/12/27 05:21:25;;;;;;;2.20;0.57;;;;;;;;;;5031350;28;20104;-68
2022/12/27 05:26:38;;;;;;;1.25;0.40;;;;;;;;;;5022033;28;20096;-68
2022/12/27 05:29:05;;;;;;;1.75;0.52;;;;;;;;;;5022516;28;20050;-68
2022/12/27 05:31:32;;;;;;;1.02;0.50;;;;;;;;;;5040918;28;20033;-68
2022/12/27 05:33:58;;;;;;;1.65;0.50;;;;;;;;;;5047805;27;20556;-68
2022/12/27 05:36:25;;;;;;;2.15;0.60;;;;;;;;;;5039002;28;20524;-68
2022/12/27 05:38:52;;;;;;;1.50;0.45;;;;;;;;;;5061278;28;20067;-67
2022/12/27 05:41:21;;;;;;;1.23;0.50;;;;;;;;;;5046347;28;20498;-68
2022/12/27 05:43:48;;;;;;;1.33;0.47;;;;;;;;;;5048881;28;20067;-66
2022/12/27 05:46:17;;;;;;;1.42;0.50;;;;;;;;;;5025929;28;20041;-68
2022/12/27 05:48:43;;;;;;;0.93;0.40;;;;;;;;;;5025056;28;20424;-67
2022/12/27 05:51:12;;;;;;;1.73;0.50;;;;;;;;;;5055673;28;20047;-68
2022/12/27 05:53:38;;;;;;;1.25;0.57;;;;;;;;;;5044160;28;20370;-68
2022/12/27 05:56:05;;;;;;;0.80;0.40;;;;;;;;;;5026354;28;20147;-67
2022/12/27 05:58:32;;;;;;;0.47;0.30;;;;;;;;;;5030190;28;20037;-67
2022/12/27 06:01:00;;;;;;;4.00;0.90;;;;;;;;;;5042011;28;20450;-67
2022/12/27 06:03:26;;;;;;;3.00;1.00;;;;;;;;;;5049010;28;20629;-67
2022/12/27 06:05:59;;;;;;;3.47;0.95;;;;;;;;;;5047985;28;20405;-68
2022/12/27 06:08:26;;;;;;;2.80;0.80;;;;;;;;;;5047407;28;20065;-66
2022/12/27 06:11:01;;;;;;;7.97;0.80;;;;;;;;;;5047768;28;20578;-68
2022/12/27 06:13:27;;;;;;;2.55;0.73;;;;;;;;;;5046287;28;20048;-67
2022/12/27 06:15:54;;;;;;;3.10;0.75;;;;;;;;;;5047276;28;20049;-67
2022/12/27 06:18:21;;;;;;;3.50;1.10;;;;;;;;;;5046553;28;20040;-67
2022/12/27 06:20:47;;;;;;;3.08;1.10;;;;;;;;;;5049600;28;20124;-68
2022/12/27 06:23:14;;;;;;;3.72;1.10;;;;;;;;;;5060384;28;20076;-68
2022/12/27 06:25:40;;;;;;;1.92;0.60;;;;;;;;;;5046202;28;20628;-70
2022/12/27 06:28:07;;;;;;;1.27;0.57;;;;;;;;;;5043509;28;20411;-68
2022/12/27 06:30:34;;;;;;;2.75;0.70;;;;;;;;;;5047027;28;20065;-68
2022/12/27 06:33:00;;;;;;;3.30;0.70;;;;;;;;;;5021239;28;20151;-67
2022/12/27 06:35:27;;;;;;;2.92;0.80;;;;;;;;;;5041418;28;20109;-67
2022/12/27 06:37:54;;;;;;;1.38;0.50;;;;;;;;;;5030146;28;20054;-67
2022/12/27 06:40:20;;;;;;;3.42;0.70;;;;;;;;;;5027420;28;20296;-68
2022/12/27 06:42:50;;;;;;;3.65;1.17;;;;;;;;;;5015029;28;20516;-69
2022/12/27 06:45:16;;;;;;;3.22;1.08;;;;;;;;;;5038975;28;20063;-67
2022/12/27 06:47:43;;;;;;;4.43;1.08;;;;;;;;;;5042838;28;20516;-69
2022/12/27 06:50:10;;;;;;;4.22;0.98;;;;;;;;;;5042093;28;20033;-68
2022/12/27 06:52:37;;;;;;;3.42;0.90;;;;;;;;;;5020197;28;20156;-68
2022/12/27 06:55:05;;;;;;;3.03;1.00;;;;;;;;;;5035253;28;20049;-69
2022/12/27 06:57:32;;;;;;;3.30;0.88;;;;;;;;;;5045083;28;20037;-69
2022/12/27 06:59:59;;;;;;;3.63;0.85;;;;;;;;;;5049556;28;20099;-67
2022/12/27 07:02:25;;;;;;;2.22;0.70;;;;;;;;;;5045342;28;20041;-67
2022/12/27 07:04:52;;;;;;;3.33;1.13;;;;;;;;;;5046967;28;21784;-68
2022/12/27 07:07:18;;;;;;;4.32;1.10;;;;;;;;;;5055761;28;20057;-68
2022/12/27 07:09:45;;;;;;;3.75;0.98;;;;;;;;;;5035374;28;20036;-68
2022/12/27 07:12:12;;;;;;;3.38;0.88;;;;;;;;;;5042750;28;20036;-68
2022/12/27 07:14:38;;;;;;;1.70;0.60;;;;;;;;;;5037560;28;20041;-68
2022/12/27 07:17:05;;;;;;;2.20;0.70;;;;;;;;;;5048004;28;20045;-68
2022/12/27 07:19:31;;;;;;;1.58;0.57;;;;;;;;;;5046700;28;21523;-69
2022/12/27 07:21:58;;;;;;;2.30;0.60;;;;;;;;;;5047016;28;20037;-67
2022/12/27 07:24:25;;;;;;;1.25;0.47;;;;;;;;;;5060635;28;20063;-68
2022/12/27 07:26:51;;;;;;;1.90;0.60;;;;;;;;;;5046309;28;20067;-69
2022/12/27 07:29:18;;;;;;;2.30;0.77;;;;;;;;;;5027801;28;20604;-67
2022/12/27 07:31:44;;;;;;;2.28;0.80;;;;;;;;;;5038965;28;20055;-67
2022/12/27 07:34:11;;;;;;;2.50;0.70;;;;;;;;;;5049445;28;20386;-67
2022/12/27 07:36:39;;;;;;;3.40;1.00;;;;;;;;;;5045560;28;20833;-68
2022/12/27 07:39:07;;;;;;;3.08;1.10;;;;;;;;;;5046154;28;20049;-67
2022/12/27 07:41:33;;;;;;;3.15;0.90;;;;;;;;;;5043969;28;20123;-67
2022/12/27 07:44:00;;;;;;;5.10;1.10;;;;;;;;;;5060608;28;20063;-67
2022/12/27 07:46:27;;;;;;;2.97;1.10;;;;;;;;;;5044928;28;20051;-67
2022/12/27 07:48:55;;;;;;;2.92;0.93;;;;;;;;;;5047664;28;20039;-68
2022/12/27 07:51:23;;;;;;;2.40;0.80;;;;;;;;;;5043452;28;20045;-67
2022/12/27 07:53:50;;;;;;;5.30;1.17;;;;;;;;;;5043692;28;20079;-67
2022/12/27 07:56:18;;;;;;;3.47;0.90;;;;;;;;;;5043711;28;20040;-67
2022/12/27 07:58:47;;;;;;;3.53;1.02;;;;;;;;;;5044294;28;20048;-70
2022/12/27 08:01:14;;;;;;;2.80;0.63;;;;;;;;;;5042248;28;20079;-68
2022/12/27 08:03:41;;;;;;;1.92;0.60;;;;;;;;;;5042311;28;20610;-69
2022/12/27 08:06:09;;;;;;;1.90;0.60;;;;;;;;;;5045618;28;20037;-68
2022/12/27 08:08:42;;;;;;;2.72;0.82;;;;;;;;;;5046272;28;20036;-67
2022/12/27 08:11:10;;;;;;;;;;;;;;;;;;5032397;28;20036;-69
2022/12/27 08:13:37;;;;;;;1.35;0.60;;;;;;;;;;5027936;28;19924;-69
2022/12/27 08:16:03;;;;;;;1.98;0.75;;;;;;;;;;5045631;28;20106;-67
2022/12/27 08:18:30;;;;;;;2.40;0.80;;;;;;;;;;5045552;28;20064;-66
2022/12/27 08:20:57;;;;;;;1.98;0.70;;;;;;;;;;5044821;28;20029;-68
2022/12/27 08:23:23;;;;;;;1.73;0.70;;;;;;;;;;5043744;28;20535;-67
2022/12/27 08:25:50;;;;;;;2.60;0.73;;;;;;;;;;5046915;28;20139;-67
2022/12/27 08:28:17;;;;;;;2.63;0.70;;;;;;;;;;5044776;28;20060;-68
2022/12/27 08:30:45;;;;;;;2.72;0.88;;;;;;;;;;5045783;28;20061;-69
2022/12/27 08:33:13;;;;;;;3.75;0.80;;;;;;;;;;5061618;28;20440;-68
2022/12/27 08:35:41;;;;;;;3.38;0.88;;;;;;;;;;5060129;28;20084;-66
2022/12/27 08:38:08;;;;;;;2.50;0.75;;;;;;;;;;5044384;28;20139;-67
2022/12/27 08:40:39;;;;;;;2.60;0.80;;;;;;;;;;5040024;28;20179;-68
2022/12/27 08:43:05;;;;;;;1.95;0.50;;;;;;;;;;5044017;28;20101;-67
2022/12/27 08:45:32;;;;;;;1.83;0.65;;;;;;;;;;5043940;28;20036;-67
2022/12/27 08:47:59;;;;;;;2.67;0.88;;;;;;;;;;5045547;28;20045;-68
2022/12/27 08:50:26;;;;;;;3.30;1.20;;;;;;;;;;5041565;28;20490;-67
2022/12/27 08:52:56;;;;;;;4.28;0.98;;;;;;;;;;5044579;28;20060;-66
2022/12/27 08:55:23;;;;;;;3.90;0.95;;;;;;;;;;5043313;28;20497;-67
2022/12/27 08:57:49;;;;;;;3.67;1.10;;;;;;;;;;5042170;28;20556;-66
2022/12/27 09:00:16;;;;;;;2.67;0.95;;;;;;;;;;5044804;28;20072;-67
2022/12/27 09:02:43;;;;;;;2.33;0.80;;;;;;;;;;5042999;28;20663;-67
2022/12/27 09:05:09;;;;;;;2.55;0.88;;;;;;;;;;5045966;28;20681;-67
2022/12/27 09:07:36;;;;;;;2.75;0.77;;;;;;;;;;5044231;28;20732;-67
2022/12/27 09:10:03;;;;;;;3.15;0.93;;;;;;;;;;5043970;28;20099;-67
2022/12/27 09:12:31;;;;;;;2.33;0.70;;;;;;;;;;5060613;28;20094;-68
2022/12/27 09:14:58;;;;;;;3.90;0.90;;;;;;;;;;5045559;28;20040;-69
2022/12/27 09:17:25;;;;;;;3.10;0.80;;;;;;;;;;5043288;28;20041;-69
2022/12/27 09:19:52;;;;;;;5.95;0.90;;;;;;;;;;5038082;28;20060;-68
2022/12/27 09:22:18;;;;;;;3.08;0.80;;;;;;;;;;5032027;28;20036;-68
2022/12/27 09:24:45;;;;;;;2.40;0.70;;;;;;;;;;5046571;28;20039;-68
2022/12/27 09:27:12;;;;;;;3.13;0.80;;;;;;;;;;5044833;28;20123;-68
2022/12/27 09:29:38;;;;;;;2.83;0.80;;;;;;;;;;5046010;28;20473;-69
2022/12/27 09:32:05;;;;;;;2.30;0.70;;;;;;;;;;5045162;28;20132;-67
2022/12/27 09:34:32;;;;;;;4.05;1.00;;;;;;;;;;5044622;28;20035;-68
2022/12/27 09:36:58;;;;;;;4.70;0.98;;;;;;;;;;5046491;28;20218;-68
2022/12/27 09:39:25;;;;;;;3.05;0.73;;;;;;;;;;5044123;28;20390;-68
2022/12/27 09:42:12;;;;;;;2.58;0.90;;;;;;;;;;5044857;28;20835;-68
2022/12/27 09:44:44;;;;;;;3.10;1.00;;;;;;;;;;5018173;28;20054;-69
2022/12/27 09:47:11;;;;;;;4.57;0.80;;;;;;;;;;5028396;28;20048;-68
2022/12/27 09:49:39;;;;;;;3.38;0.90;;;;;;;;;;5041897;28;20543;-68
2022/12/27 09:52:15;;;;;;;4.03;0.98;;;;;;;;;;5023332;28;20100;-68
2022/12/27 09:54:45;;;;;;;2.83;0.88;;;;;;;;;;5027321;28;20491;-68
2022/12/27 09:57:17;;;;;;;3.70;1.08;;;;;;;;;;5045939;28;20094;-70
2022/12/27 09:59:52;;;;;;;3.63;0.70;;;;;;;;;;5044249;28;20094;-68
2022/12/27 10:02:24;;;;;;;3.35;1.00;;;;;;;;;;5044425;28;20044;-68
2022/12/27 10:04:51;;;;;;;3.33;1.13;;;;;;;;;;5046031;28;20037;-68
2022/12/27 10:07:36;;;;;;;3.95;1.10;;;;;;;;;;5043855;28;20040;-68
2022/12/27 10:10:25;;;;;;;2.63;0.70;;;;;;;;;;5044431;28;20185;-69
2022/12/27 10:13:16;;;;;;;2.45;0.68;;;;;;;;;;5045797;28;20060;-69
2022/12/27 10:15:49;;;;;;;2.05;0.60;;;;;;;;;;5032173;28;20560;-69
2022/12/27 10:18:20;;;;;;;2.45;0.60;;;;;;;;;;5029850;28;20029;-68
2022/12/27 10:20:52;;;;;;;2.10;0.70;;;;;;;;;;5022278;28;20137;-69
2022/12/27 10:23:21;;;;;;;1.23;0.40;;;;;;;;;;5024742;28;20134;-68
2022/12/27 10:25:49;;;;;;;1.58;0.50;;;;;;;;;;5029704;28;20052;-68
2022/12/27 10:28:18;;;;;;;1.15;0.40;;;;;;;;;;5047522;28;20043;-68
2022/12/27 10:30:44;;;;;;;1.25;0.50;;;;;;;;;;5046950;28;20596;-68
2022/12/27 10:33:40;;;;;;;1.77;0.50;;;;;;;;;;5048003;28;20896;-68
2022/12/27 10:36:10;;;;;;;1.60;0.52;;;;;;;;;;5046134;28;20045;-68
2022/12/27 10:38:36;;;;;;;1.77;0.60;;;;;;;;;;5049030;28;20036;-68
2022/12/27 10:41:06;;;;;;;1.20;0.47;;;;;;;;;;5047733;28;20049;-68
2022/12/27 10:43:35;;;;;;;1.70;0.50;;;;;;;;;;5047123;28;20045;-68
2022/12/27 10:46:11;;;;;;;1.08;0.40;;;;;;;;;;5046159;28;20052;-68
2022/12/27 10:48:38;;;;;;;1.63;0.57;;;;;;;;;;5047789;28;20052;-69
2022/12/27 10:51:09;;;;;;;1.88;0.60;;;;;;;;;;5048326;28;20040;-68
2022/12/27 10:53:40;;;;;;;1.80;0.50;;;;;;;;;;5048976;28;20041;-68
2022/12/27 10:56:28;;;;;;;1.08;0.43;;;;;;;;;;5041363;28;20075;-69
2022/12/27 10:59:07;;;;;;;2.05;0.50;;;;;;;;;;5044566;28;20068;-69
2022/12/27 11:01:34;;;;;;;1.20;0.50;;;;;;;;;;5042945;28;20167;-68
2022/12/27 11:04:26;;;;;;;1.73;0.50;;;;;;;;;;5042183;28;20106;-69
2022/12/27 11:07:00;;;;;;;2.15;0.60;;;;;;;;;;5039362;28;20535;-69
2022/12/27 11:09:27;;;;;;;1.40;0.40;;;;;;;;;;5042317;28;20048;-69
2022/12/27 11:12:13;;;;;;;1.60;0.50;;;;;;;;;;5041143;28;20066;-69
2022/12/27 11:14:58;;;;;;;1.55;0.50;;;;;;;;;;5033586;28;20128;-70
2022/12/27 11:17:31;;;;;;;2.97;0.50;;;;;;;;;;5039924;28;20071;-69
2022/12/27 11:19:58;;;;;;;3.53;1.40;;;;;;;;;;5041828;28;20029;-69
2022/12/27 11:22:26;;;;;;;3.80;1.40;;;;;;;;;;5040152;28;20278;-67
2022/12/27 11:24:53;;;;;;;3.10;1.10;;;;;;;;;;5041818;28;20169;-67
2022/12/27 11:27:23;;;;;;;2.90;0.90;;;;;;;;;;5043312;28;21815;-68
2022/12/27 11:29:50;;;;;;;1.63;0.50;;;;;;;;;;5046941;28;20185;-68
2022/12/27 11:32:17;;;;;;;2.65;0.57;;;;;;;;;;5046900;28;20095;-68
2022/12/27 11:34:47;;;;;;;3.15;0.60;;;;;;;;;;5035100;28;20144;-67
2022/12/27 11:37:16;;;;;;;0.82;0.40;;;;;;;;;;5027240;28;20033;-67
2022/12/27 11:39:44;;;;;;;1.52;0.50;;;;;;;;;;5026268;28;20041;-66
2022/12/27 11:42:10;;;;;;;0.65;0.40;;;;;;;;;;5027207;28;20037;-67
2022/12/27 11:44:40;;;;;;;1.27;0.40;;;;;;;;;;5026555;28;20083;-67
2022/12/27 11:47:27;;;;;;;1.08;0.40;;;;;;;;;;5027271;28;20041;-67
2022/12/27 11:50:01;;;;;;;1.65;0.57;;;;;;;;;;5025587;28;20057;-67
2022/12/27 11:52:35;;;;;;;1.77;0.50;;;;;;;;;;5039389;28;20040;-67
2022/12/27 11:55:17;;;;;;;2.30;0.60;;;;;;;;;;5029907;28;20041;-69
2022/12/27 11:57:59;;;;;;;2.72;0.80;;;;;;;;;;5027859;28;20029;-69
2022/12/27 12:00:30;;;;;;;1.52;0.55;;;;;;;;;;5024148;28;20116;-67
2022/12/27 12:03:15;;;;;;;1.25;0.40;;;;;;;;;;5025502;28;20078;-67
2022/12/27 12:05:48;;;;;;;1.88;0.50;;;;;;;;;;5025558;28;20048;-68
2022/12/27 12:08:14;;;;;;;1.58;0.50;;;;;;;;;;5026367;28;20029;-68
2022/12/27 12:10:44;;;;;;;1.20;0.40;;;;;;;;;;5024140;28;20029;-68
2022/12/27 12:13:35;;;;;;;1.75;0.55;;;;;;;;;;5028290;28;20041;-68
2022/12/27 12:16:20;;;;;;;1.73;0.57;;;;;;;;;;5046812;28;20033;-68
2022/12/27 12:19:03;;;;;;;1.98;0.55;;;;;;;;;;5044199;28;20128;-67
2022/12/27 12:21:48;;;;;;;1.70;0.50;;;;;;;;;;5045421;28;20047;-67
2022/12/27 12:24:23;;;;;;;2.10;0.57;;;;;;;;;;5048872;28;20524;-68
2022/12/27 12:26:53;;;;;;;2.28;0.60;;;;;;;;;;5033981;28;20057;-68
2022/12/27 12:29:20;;;;;;;2.50;0.60;;;;;;;;;;5025521;28;20041;-68
2022/12/27 12:32:05;;;;;;;2.22;0.75;;;;;;;;;;5026080;28;20394;-68
2022/12/27 12:34:50;;;;;;;2.63;0.68;;;;;;;;;;5025402;28;20041;-68
2022/12/27 12:37:35;;;;;;;1.90;0.60;;;;;;;;;;5027054;28;20049;-68
2022/12/27 12:40:12;;;;;;;2.65;0.57;;;;;;;;;;5029527;28;20172;-68
2022/12/27 12:42:39;;;;;;;4.13;0.60;;;;;;;;;;5024389;28;20042;-69
2022/12/27 12:45:24;;;;;;;2.83;0.68;;;;;;;;;;5025978;28;20041;-69
2022/12/27 12:47:54;;;;;;;2.33;0.73;;;;;;;;;;5024763;28;20041;-69
2022/12/27 12:50:38;;;;;;;2.13;0.63;;;;;;;;;;5023558;28;20055;-68
2022/12/27 12:53:11;;;;;;;2.55;0.82;;;;;;;;;;5026469;28;20083;-68
2022/12/27 12:55:43;;;;;;;2.45;0.52;;;;;;;;;;5024024;28;20037;-68
2022/12/27 12:58:16;;;;;;;1.95;0.60;;;;;;;;;;5025196;28;20057;-68
2022/12/27 13:00:52;;;;;;;3.55;0.80;;;;;;;;;;5024678;28;20044;-68
2022/12/27 13:03:33;;;;;;;3.22;0.70;;;;;;;;;;5023374;28;21833;-68
2022/12/27 13:06:00;;;;;;;3.85;0.60;;;;;;;;;;5026670;28;20045;-68
2022/12/27 13:08:42;;;;;;;2.35;0.68;;;;;;;;;;5024267;28;20374;-68
2022/12/27 13:11:24;;;;;;;1.83;0.60;;;;;;;;;;5036144;28;20805;-68
2022/12/27 13:14:00;;;;;;;3.22;0.70;;;;;;;;;;5023969;28;20375;-69
2022/12/27 13:16:33;;;;;;;2.10;0.60;;;;;;;;;;5023980;28;20469;-69
2022/12/27 13:19:00;;;;;;;1.77;0.60;;;;;;;;;;5025798;28;20038;-68
2022/12/27 13:21:29;;;;;;;2.33;0.60;;;;;;;;;;5024734;28;20506;-68
2022/12/27 13:24:02;;;;;;;1.70;0.50;;;;;;;;;;5027055;28;20187;-68
2022/12/27 13:26:40;;;;;;;1.92;0.60;;;;;;;;;;5023481;28;20490;-69
2022/12/27 13:29:18;;;;;;;2.13;0.55;;;;;;;;;;5026564;28;20553;-68
2022/12/27 13:32:03;;;;;;;3.17;0.70;;;;;;;;;;5024573;28;20515;-69
2022/12/27 13:34:44;;;;;;;1.42;0.50;;;;;;;;;;5025949;28;20037;-68
2022/12/27 13:37:19;;;;;;;3.88;0.63;;;;;;;;;;5025190;28;20055;-68
2022/12/27 13:40:06;;;;;;;4.07;0.70;;;;;;;;;;5030790;28;20036;-69
2022/12/27 13:42:51;;;;;;;2.03;0.60;;;;;;;;;;5026407;28;20690;-69
2022/12/27 13:45:25;;;;;;;3.65;0.80;;;;;;;;;;5027447;28;20164;-68
2022/12/27 13:48:05;;;;;;;4.78;0.80;;;;;;;;;;5025657;28;20053;-68
2022/12/27 13:50:32;;;;;;;2.50;0.70;;;;;;;;;;5027128;28;20047;-68
2022/12/27 13:53:12;;;;;;;2.70;0.80;;;;;;;;;;5029401;28;20097;-70
2022/12/27 13:55:45;;;;;;;7.82;0.90;;;;;;;;;;5029901;28;20072;-70
2022/12/27 13:58:27;;;;;;;2.97;0.68;;;;;;;;;;5032268;28;20049;-69
2022/12/27 14:01:00;;;;;;;1.98;0.70;;;;;;;;;;5028505;28;20041;-69
2022/12/27 14:03:30;;;;;;;3.60;0.80;;;;;;;;;;5020440;28;20041;-69
2022/12/27 14:06:12;;;;;;;2.88;0.82;;;;;;;;;;5042097;28;20072;-68
2022/12/27 14:08:56;;;;;;;3.80;0.75;;;;;;;;;;5027898;28;20716;-68
2022/12/27 14:11:23;;;;;;;4.82;1.10;;;;;;;;;;5026907;28;20489;-69
2022/12/27 14:13:50;;;;;;;2.70;0.88;;;;;;;;;;5028733;28;20171;-68
2022/12/27 14:17:05;;;;;;;2.35;0.70;;;;;;;;;;5045001;28;20538;-70
2022/12/27 14:19:32;;;;;;;3.60;0.85;;;;;;;;;;5045737;28;20347;-69
2022/12/27 14:22:09;;;;;;;2.45;0.60;;;;;;;;;;5045715;28;20571;-68
2022/12/27 14:24:54;;;;;;;2.33;0.60;;;;;;;;;;5045364;28;20060;-70
2022/12/27 14:27:23;;;;;;;5.28;1.00;;;;;;;;;;5043765;28;20037;-69
2022/12/27 14:30:05;;;;;;;3.88;0.80;;;;;;;;;;5046758;28;20056;-69
2022/12/27 14:32:43;;;;;;;3.25;0.80;;;;;;;;;;5035494;28;20171;-68
2022/12/27 14:35:28;;;;;;;2.63;0.70;;;;;;;;;;5044714;28;20060;-68
2022/12/27 14:38:13;;;;;;;1.83;0.70;;;;;;;;;;5056178;28;20033;-69
2022/12/27 14:40:39;;;;;;;5.30;0.82;;;;;;;;;;5065195;28;20044;-69
2022/12/27 14:43:26;;;;;;;2.92;0.80;;;;;;;;;;5066842;28;20544;-69
2022/12/27 14:46:11;;;;;;;3.08;0.80;;;;;;;;;;5054656;28;20128;-69
2022/12/27 14:48:41;;;;;;;5.22;0.73;;;;;;;;;;5065403;28;20532;-69
2022/12/27 14:51:46;;;;;;;2.53;0.90;;;;;;;;;;5066476;28;20036;-67
2022/12/27 14:54:31;;;;;;;4.10;0.90;;;;;;;;;;5016290;28;20033;-69
2022/12/27 14:56:57;;;;;;;4.60;0.60;;;;;;;;;;5012870;28;20045;-69
2022/12/27 14:59:30;;;;;;;4.07;0.80;;;;;;;;;;5025496;28;20775;-69
2022/12/27 15:01:56;;;;;;;2.08;0.68;;;;;;;;;;5030075;28;20039;-69
2022/12/27 15:04:35;;;;;;;3.80;0.90;;;;;;;;;;5030539;28;20044;-69
2022/12/27 15:07:11;;;;;;;3.13;0.80;;;;;;;;;;5026516;28;20041;-68
2022/12/27 15:09:37;;;;;;;3.72;0.80;;;;;;;;;;5030290;28;20060;-68
2022/12/27 15:12:13;;;;;;;3.28;0.85;;;;;;;;;;5029268;28;20048;-67
2022/12/27 15:14:58;;;;;;;5.18;1.20;;;;;;;;;;5026345;28;20565;-68
2022/12/27 15:17:46;;;;;;;3.45;0.82;;;;;;;;;;5028357;28;20512;-70
2022/12/27 15:20:15;;;;;;;7.57;1.10;;;;;;;;;;5025518;28;20331;-70
2022/12/27 15:22:48;;;;;;;5.78;0.98;;;;;;;;;;5028455;28;20045;-69
2022/12/27 15:25:36;;;;;;;2.77;1.00;;;;;;;;;;5028768;28;20037;-69
2022/12/27 15:28:12;;;;;;;4.05;1.38;;;;;;;;;;5026641;28;20061;-66
2022/12/27 15:30:54;;;;;;;5.05;1.27;;;;;;;;;;5039931;28;20039;-69
2022/12/27 15:33:38;;;;;;;4.82;1.33;;;;;;;;;;5023146;28;20123;-68
2022/12/27 15:36:05;;;;;;;4.30;1.77;;;;;;;;;;5025383;28;20073;-69
2022/12/27 15:38:40;;;;;;;4.20;2.10;;;;;;;;;;5026703;28;20041;-68
2022/12/27 15:41:06;;;;;;;7.60;1.75;;;;;;;;;;5026306;28;20037;-67
2022/12/27 15:43:36;;;;;;;3.47;1.45;;;;;;;;;;5026266;28;20033;-65
2022/12/27 15:46:16;;;;;;;5.60;1.98;;;;;;;;;;5041882;28;20060;-68
2022/12/27 15:48:49;;;;;;;4.18;1.48;;;;;;;;;;5033039;28;20472;-68
2022/12/27 15:51:19;;;;;;;3.80;1.63;;;;;;;;;;5029031;28;20041;-68
2022/12/27 15:54:04;;;;;;;3.53;1.40;;;;;;;;;;5040610;28;20048;-67
2022/12/27 15:56:50;;;;;;;3.25;1.65;;;;;;;;;;5025647;28;20510;-68
2022/12/27 15:59:35;;;;;;;4.45;2.00;;;;;;;;;;5026520;28;20045;-68
2022/12/27 16:02:17;;;;;;;6.20;2.53;;;;;;;;;;5030668;28;20145;-70
2022/12/27 16:04:47;;;;;;;5.15;2.70;;;;;;;;;;5025319;28;20112;-67
2022/12/27 16:07:32;;;;;;;5.63;2.90;;;;;;;;;;5017128;28;20489;-67
2022/12/27 16:09:59;;;;;;;5.55;2.90;;;;;;;;;;5041430;28;20049;-68
2022/12/27 16:12:51;;;;;;;6.22;3.55;;;;;;;;;;5017163;28;20041;-66
2022/12/27 16:15:34;;;;;;;8.65;4.90;;;;;;;;;;5026229;28;20203;-69
2022/12/27 16:18:02;;;;;;;7.25;3.17;;;;;;;;;;5025889;28;20041;-69
2022/12/27 16:20:36;;;;;;;5.20;2.78;;;;;;;;;;5022889;28;20033;-69
2022/12/27 16:23:05;;;;;;;11.95;3.00;;;;;;;;;;5025538;28;20037;-69
2022/12/27 16:25:36;;;;;;;7.60;3.22;;;;;;;;;;5023535;28;20045;-69
2022/12/27 16:28:06;;;;;;;8.98;3.13;;;;;;;;;;5023956;28;20040;-68
2022/12/27 16:30:47;;;;;;;8.77;3.17;;;;;;;;;;5026930;28;20068;-66
2022/12/27 16:33:36;;;;;;;6.57;3.22;;;;;;;;;;5023744;28;20488;-67
2022/12/27 16:36:05;;;;;;;12.45;3.60;;;;;;;;;;5030482;28;20053;-68
2022/12/27 16:38:33;;;;;;;11.05;4.03;;;;;;;;;;5025008;28;20053;-68
2022/12/27 16:41:35;;;;;;;47.13;6.18;;;;;;;;;;5024684;28;20125;-69
2022/12/27 16:44:02;;;;;;;19.50;4.40;;;;;;;;;;5030483;28;20051;-65